createdAt,value
2022-08-21T00:01:42.468Z,101220.91
2022-08-21T00:04:10.882Z,101223.31
2022-08-21T00:06:42.126Z,101219.84
2022-08-21T00:09:10.874Z,101220.91
2022-08-21T00:11:39.344Z,101222.84
2022-08-21T00:14:08.061Z,101220.63
2022-08-21T00:16:36.025Z,101224.84
2022-08-21T00:19:04.112Z,101223.84
2022-08-21T00:21:31.766Z,101221.78
2022-08-21T00:23:59.775Z,101218.75
2022-08-21T00:26:27.725Z,101220.94
2022-08-21T00:28:55.446Z,101224.50
2022-08-21T00:31:23.960Z,101218.72
2022-08-21T00:33:51.489Z,101214.44
2022-08-21T00:36:19.153Z,101219.63
2022-08-21T00:38:47.447Z,101217.84
2022-08-21T00:41:36.997Z,101216.47
2022-08-21T00:44:02.988Z,101210.06
2022-08-21T00:46:30.719Z,101210.91
2022-08-21T00:48:59.097Z,101211.91
2022-08-21T00:51:33.628Z,101206.13
2022-08-21T00:54:11.620Z,101209.22
2022-08-21T00:56:49.360Z,101209.31
2022-08-21T00:59:18.407Z,101215.69
2022-08-21T01:01:46.668Z,101210.47
2022-08-21T01:04:14.651Z,101216.13
2022-08-21T01:06:42.306Z,101220.09
2022-08-21T01:09:10.432Z,101220.84
2022-08-21T01:11:38.935Z,101219.06
2022-08-21T01:14:06.747Z,101229.75
2022-08-21T01:16:34.856Z,101225.00
2022-08-21T01:19:02.532Z,101224.88
2022-08-21T01:21:30.333Z,101233.03
2022-08-21T01:23:58.744Z,101225.22
2022-08-21T01:26:32.686Z,101222.16
2022-08-21T01:29:31.880Z,101219.09
2022-08-21T01:32:00.826Z,101223.13
2022-08-21T01:34:28.728Z,101221.44
2022-08-21T01:36:56.351Z,101214.84
2022-08-21T01:39:23.950Z,101216.87
2022-08-21T01:41:51.906Z,101223.09
2022-08-21T01:44:21.866Z,101216.00
2022-08-21T01:46:49.647Z,101217.59
2022-08-21T01:49:17.638Z,101222.38
2022-08-21T01:51:45.427Z,101220.69
2022-08-21T01:54:13.374Z,101222.28
2022-08-21T01:56:45.593Z,101219.00
2022-08-21T01:59:13.301Z,101220.69
2022-08-21T02:01:41.281Z,101218.16
2022-08-21T02:04:10.585Z,101222.16
2022-08-21T02:06:38.488Z,101224.19
2022-08-21T02:09:07.521Z,101217.53
2022-08-21T02:11:35.936Z,101216.25
2022-08-21T02:14:03.780Z,101227.25
2022-08-21T02:16:31.283Z,101221.44
2022-08-21T02:19:00.654Z,101224.47
2022-08-21T02:21:28.223Z,101233.97
2022-08-21T02:23:55.810Z,101231.25
2022-08-21T02:26:24.036Z,101224.91
2022-08-21T02:28:51.709Z,101225.34
2022-08-21T02:31:19.403Z,101231.38
2022-08-21T02:33:47.683Z,101233.13
2022-08-21T02:36:15.804Z,101236.22
2022-08-21T02:38:44.261Z,101232.50
2022-08-21T02:41:14.218Z,101228.28
2022-08-21T02:43:42.738Z,101231.34
2022-08-21T02:46:13.151Z,101241.28
2022-08-21T02:48:41.290Z,101236.97
2022-08-21T02:51:11.948Z,101236.31
2022-08-21T02:53:39.516Z,101235.78
2022-08-21T02:56:08.698Z,101234.63
2022-08-21T02:58:38.307Z,101232.31
2022-08-21T03:01:09.706Z,101235.56
2022-08-21T03:03:39.158Z,101241.81
2022-08-21T03:06:08.640Z,101239.78
2022-08-21T03:08:36.907Z,101246.87
2022-08-21T03:11:05.306Z,101242.12
2022-08-21T03:13:35.237Z,101243.72
2022-08-21T03:16:02.850Z,101240.56
2022-08-21T03:18:33.534Z,101245.12
2022-08-21T03:21:01.355Z,101233.81
2022-08-21T03:23:32.551Z,101238.44
2022-08-21T03:26:00.919Z,101234.81
2022-08-21T03:28:28.652Z,101234.97
2022-08-21T03:30:56.605Z,101236.78
2022-08-21T03:33:24.599Z,101235.88
2022-08-21T03:36:01.810Z,101240.00
2022-08-21T03:38:31.861Z,101236.28
2022-08-21T03:41:00.150Z,101242.38
2022-08-21T03:43:27.955Z,101243.53
2022-08-21T03:46:02.200Z,101244.34
2022-08-21T03:48:30.233Z,101245.69
2022-08-21T03:50:57.871Z,101241.47
2022-08-21T03:53:27.281Z,101242.91
2022-08-21T03:55:55.581Z,101250.28
2022-08-21T03:58:25.159Z,101249.31
2022-08-21T04:00:55.182Z,101248.44
2022-08-21T04:03:23.285Z,101241.25
2022-08-21T04:05:53.098Z,101240.94
2022-08-21T04:08:20.676Z,101242.59
2022-08-21T04:10:51.320Z,101234.31
2022-08-21T04:13:18.905Z,101234.19
2022-08-21T04:15:46.490Z,101229.13
2022-08-21T04:18:14.652Z,101234.63
2022-08-21T04:20:45.440Z,101230.22
2022-08-21T04:23:23.917Z,101227.47
2022-08-21T04:25:53.182Z,101229.03
2022-08-21T04:28:21.715Z,101230.50
2022-08-21T04:30:51.951Z,101231.50
2022-08-21T04:33:20.174Z,101228.88
2022-08-21T04:35:48.064Z,101228.91
2022-08-21T04:38:15.599Z,101232.56
2022-08-21T04:40:43.270Z,101228.06
2022-08-21T04:43:11.702Z,101232.88
2022-08-21T04:45:41.213Z,101227.81
2022-08-21T04:48:13.851Z,101229.87
2022-08-21T04:50:51.620Z,101238.81
2022-08-21T04:53:24.929Z,101227.19
2022-08-21T04:55:54.175Z,101220.09
2022-08-21T04:58:22.919Z,101226.59
2022-08-21T05:00:53.424Z,101226.75
2022-08-21T05:03:22.909Z,101229.53
2022-08-21T05:05:50.735Z,101228.28
2022-08-21T05:11:06.517Z,101239.41
2022-08-21T05:13:34.479Z,101233.87
2022-08-21T05:16:02.114Z,101233.72
2022-08-21T05:18:30.536Z,101224.19
2022-08-21T05:20:58.336Z,101222.00
2022-08-21T05:23:26.218Z,101221.00
2022-08-21T05:25:54.601Z,101227.50
2022-08-21T05:28:22.193Z,101230.91
2022-08-21T05:30:49.789Z,101229.16
2022-08-21T05:33:17.700Z,101228.34
2022-08-21T05:35:45.230Z,101223.41
2022-08-21T05:38:17.851Z,101229.91
2022-08-21T05:40:47.278Z,101230.75
2022-08-21T05:43:15.948Z,101220.44
2022-08-21T05:45:44.362Z,101215.81
2022-08-21T05:48:17.113Z,101217.34
2022-08-21T05:50:45.402Z,101215.09
2022-08-21T05:53:14.810Z,101213.53
2022-08-21T05:55:45.708Z,101206.06
2022-08-21T05:58:18.369Z,101220.19
2022-08-21T06:00:46.926Z,101213.81
2022-08-21T06:03:18.180Z,101201.50
2022-08-21T06:05:46.931Z,101204.81
2022-08-21T06:08:18.235Z,101204.09
2022-08-21T06:10:46.272Z,101195.81
2022-08-21T06:13:14.428Z,101194.81
2022-08-21T06:15:42.647Z,101189.78
2022-08-21T06:18:10.209Z,101192.84
2022-08-21T06:20:37.844Z,101185.28
2022-08-21T06:23:06.144Z,101187.75
2022-08-21T06:25:34.014Z,101197.03
2022-08-21T06:28:04.719Z,101180.31
2022-08-21T06:30:33.193Z,101176.37
2022-08-21T06:33:01.281Z,101194.22
2022-08-21T06:35:30.327Z,101181.50
2022-08-21T06:37:59.044Z,101185.00
2022-08-21T06:40:27.496Z,101189.03
2022-08-21T06:42:59.628Z,101177.34
2022-08-21T06:45:32.208Z,101170.50
2022-08-21T06:48:00.898Z,101173.56
2022-08-21T06:50:28.667Z,101181.06
2022-08-21T06:53:12.993Z,101176.94
2022-08-21T06:55:41.907Z,101180.97
2022-08-21T06:58:09.478Z,101170.97
2022-08-21T07:00:39.610Z,101173.06
2022-08-21T07:03:07.883Z,101169.75
2022-08-21T07:05:35.437Z,101175.34
2022-08-21T07:08:03.110Z,101169.50
2022-08-21T07:10:31.080Z,101167.84
2022-08-21T07:13:00.461Z,101168.28
2022-08-21T07:15:32.302Z,101158.72
2022-08-21T07:18:01.033Z,101156.75
2022-08-21T07:20:29.909Z,101153.03
2022-08-21T07:23:00.494Z,101151.81
2022-08-21T07:25:28.765Z,101154.69
2022-08-21T07:27:56.719Z,101155.37
2022-08-21T07:30:25.161Z,101158.16
2022-08-21T07:32:53.319Z,101167.94
2022-08-21T07:35:21.853Z,101167.31
2022-08-21T07:37:49.674Z,101162.63
2022-08-21T07:40:18.485Z,101149.56
2022-08-21T07:42:47.899Z,101148.75
2022-08-21T07:45:16.650Z,101150.09
2022-08-21T07:47:44.811Z,101151.69
2022-08-21T07:50:16.373Z,101145.94
2022-08-21T07:52:45.160Z,101146.53
2022-08-21T07:55:13.855Z,101143.59
2022-08-21T07:57:41.544Z,101151.66
2022-08-21T08:00:11.228Z,101147.94
2022-08-21T08:02:40.214Z,101137.44
2022-08-21T08:05:10.685Z,101148.00
2022-08-21T08:07:38.732Z,101141.06
2022-08-21T08:10:08.228Z,101124.78
2022-08-21T08:12:38.828Z,101131.25
2022-08-21T08:15:07.656Z,101126.88
2022-08-21T08:17:35.387Z,101123.41
2022-08-21T08:20:04.110Z,101113.59
2022-08-21T08:22:31.678Z,101120.56
2022-08-21T08:27:46.247Z,101122.00
2022-08-21T08:30:16.231Z,101118.72
2022-08-21T08:32:44.057Z,101116.84
2022-08-21T08:35:13.028Z,101102.72
2022-08-21T08:37:41.923Z,101105.47
2022-08-21T08:40:15.323Z,101094.81
2022-08-21T08:42:44.000Z,101089.22
2022-08-21T08:45:13.171Z,101091.34
2022-08-21T08:47:49.994Z,101088.91
2022-08-21T08:50:18.112Z,101082.91
2022-08-21T08:53:07.213Z,101090.44
2022-08-21T08:55:40.137Z,101083.59
2022-08-21T08:58:08.093Z,101087.50
2022-08-21T09:00:35.814Z,101082.06
2022-08-21T09:03:04.917Z,101087.03
2022-08-21T09:05:38.390Z,101078.44
2022-08-21T09:08:19.049Z,101083.69
2022-08-21T09:10:52.795Z,101088.22
2022-08-21T09:13:25.036Z,101087.50
2022-08-21T09:16:15.513Z,101080.03
2022-08-21T09:18:55.228Z,101076.03
2022-08-21T09:21:33.280Z,101078.97
2022-08-21T09:24:27.788Z,101080.53
2022-08-21T09:27:08.402Z,101088.94
2022-08-21T09:29:38.295Z,101081.97
2022-08-21T09:32:13.414Z,101087.84
2022-08-21T09:34:44.920Z,101091.50
2022-08-21T09:37:19.736Z,101099.59
2022-08-21T09:39:48.932Z,101097.75
2022-08-21T09:42:24.314Z,101094.81
2022-08-21T09:45:05.773Z,101088.78
2022-08-21T09:47:33.527Z,101091.28
2022-08-21T09:50:11.829Z,101089.03
2022-08-21T09:52:44.812Z,101089.22
2022-08-21T09:55:50.720Z,101090.91
2022-08-21T09:58:19.717Z,101090.16
2022-08-21T10:00:57.762Z,101087.00
2022-08-21T10:03:26.243Z,101088.28
2022-08-21T10:05:56.082Z,101097.09
2022-08-21T10:08:27.694Z,101099.16
2022-08-21T10:10:58.960Z,101103.97
2022-08-21T10:13:46.929Z,101098.88
2022-08-21T10:16:35.298Z,101094.72
2022-08-21T10:19:03.672Z,101098.84
2022-08-21T10:21:31.853Z,101090.94
2022-08-21T10:24:02.573Z,101085.78
2022-08-21T10:26:53.064Z,101091.59
2022-08-21T10:29:45.493Z,101076.50
2022-08-21T10:32:25.843Z,101076.88
2022-08-21T10:35:03.902Z,101073.56
2022-08-21T10:37:31.671Z,101064.16
2022-08-21T10:40:02.568Z,101065.81
2022-08-21T10:42:51.188Z,101075.06
2022-08-21T10:45:21.864Z,101077.03
2022-08-21T10:47:52.164Z,101065.84
2022-08-21T10:50:26.046Z,101068.31
2022-08-21T10:53:16.852Z,101058.03
2022-08-21T10:55:53.816Z,101068.34
2022-08-21T10:58:29.720Z,101067.00
2022-08-21T11:01:06.137Z,101063.00
2022-08-21T11:03:33.879Z,101065.62
2022-08-21T11:06:12.874Z,101055.44
2022-08-21T11:08:43.646Z,101058.09
2022-08-21T11:11:15.704Z,101057.00
2022-08-21T11:13:51.314Z,101059.44
2022-08-21T11:16:39.160Z,101060.53
2022-08-21T11:19:15.426Z,101059.09
2022-08-21T11:21:50.091Z,101065.53
2022-08-21T11:24:36.737Z,101067.13
2022-08-21T11:27:12.255Z,101063.16
2022-08-21T11:29:41.051Z,101068.75
2022-08-21T11:32:14.867Z,101067.00
2022-08-21T11:37:34.365Z,101077.00
2022-08-21T11:40:06.289Z,101075.03
2022-08-21T11:42:40.974Z,101075.34
2022-08-21T11:45:08.654Z,101069.97
2022-08-21T11:47:46.393Z,101072.13
2022-08-21T11:50:34.817Z,101073.25
2022-08-21T11:53:06.717Z,101062.97
2022-08-21T11:55:38.858Z,101057.28
2022-08-21T11:58:10.092Z,101051.88
2022-08-21T12:00:42.560Z,101049.41
2022-08-21T12:03:13.383Z,101054.34
2022-08-21T12:05:42.348Z,101050.16
2022-08-21T12:08:12.617Z,101048.47
2022-08-21T12:11:02.132Z,101043.94
2022-08-21T12:13:39.808Z,101048.69
2022-08-21T12:16:11.171Z,101048.56
2022-08-21T12:18:39.676Z,101050.19
2022-08-21T12:21:07.291Z,101050.00
2022-08-21T12:23:44.675Z,101038.28
2022-08-21T12:26:21.888Z,101039.03
2022-08-21T12:28:49.555Z,101041.16
2022-08-21T12:31:22.182Z,101034.66
2022-08-21T12:33:56.334Z,101034.16
2022-08-21T12:36:27.323Z,101033.47
2022-08-21T12:39:01.704Z,101030.94
2022-08-21T12:41:34.848Z,101023.31
2022-08-21T12:44:06.963Z,101029.28
2022-08-21T12:46:45.902Z,101033.56
2022-08-21T12:49:19.971Z,101015.38
2022-08-21T12:51:57.659Z,101014.53
2022-08-21T12:54:27.229Z,101009.03
2022-08-21T12:57:03.793Z,101006.03
2022-08-21T12:59:32.234Z,101010.22
2022-08-21T13:02:02.795Z,100999.47
2022-08-21T13:04:37.562Z,101002.56
2022-08-21T13:07:14.335Z,101000.56
2022-08-21T13:09:48.440Z,100998.47
2022-08-21T13:12:17.695Z,100997.97
2022-08-21T13:14:48.682Z,100996.34
2022-08-21T13:17:25.637Z,101009.25
2022-08-21T13:19:54.815Z,101013.81
2022-08-21T13:22:34.348Z,101012.94
2022-08-21T13:25:07.202Z,101011.34
2022-08-21T13:27:35.834Z,101011.97
2022-08-21T13:30:12.555Z,101008.94
2022-08-21T13:32:43.333Z,101020.69
2022-08-21T13:35:13.092Z,101022.31
2022-08-21T13:37:42.455Z,101027.16
2022-08-21T13:40:17.978Z,101016.75
2022-08-21T13:42:46.678Z,101013.50
2022-08-21T13:45:15.988Z,101006.37
2022-08-21T13:47:45.035Z,101015.38
2022-08-21T13:50:15.011Z,101008.53
2022-08-21T13:52:52.654Z,101004.53
2022-08-21T13:55:20.621Z,101011.25
2022-08-21T13:57:48.342Z,101007.81
2022-08-21T14:00:21.534Z,101004.19
2022-08-21T14:02:54.286Z,101003.37
2022-08-21T14:05:24.389Z,101010.94
2022-08-21T14:07:54.184Z,100994.62
2022-08-21T14:10:23.602Z,100989.59
2022-08-21T14:12:53.518Z,100990.88
2022-08-21T14:15:24.701Z,100989.09
2022-08-21T14:17:52.614Z,100988.69
2022-08-21T14:20:28.468Z,100995.09
2022-08-21T14:22:56.976Z,100993.97
2022-08-21T14:25:25.426Z,100989.91
2022-08-21T14:28:00.375Z,100996.34
2022-08-21T14:30:31.236Z,100992.09
2022-08-21T14:33:00.105Z,100993.31
2022-08-21T14:35:28.596Z,100991.47
2022-08-21T14:37:57.575Z,100976.47
2022-08-21T14:40:26.278Z,100979.44
2022-08-21T14:42:54.794Z,100970.72
2022-08-21T14:45:30.777Z,100973.28
2022-08-21T14:48:00.074Z,100981.12
2022-08-21T14:50:28.245Z,100993.16
2022-08-21T14:52:58.480Z,100983.53
2022-08-21T14:55:27.557Z,100991.34
2022-08-21T14:57:59.677Z,100987.00
2022-08-21T15:00:35.957Z,100986.31
2022-08-21T15:03:04.248Z,100987.16
2022-08-21T15:05:33.983Z,100983.06
2022-08-21T15:08:02.556Z,100983.25
2022-08-21T15:10:31.574Z,100977.78
2022-08-21T15:12:59.731Z,100982.94
2022-08-21T15:15:27.574Z,100988.12
2022-08-21T15:17:55.805Z,100976.97
2022-08-21T15:20:23.936Z,100986.19
2022-08-21T15:22:51.628Z,100979.37
2022-08-21T15:25:19.318Z,100991.91
2022-08-21T15:27:47.324Z,100984.41
2022-08-21T15:30:15.148Z,100988.12
2022-08-21T15:32:43.041Z,100990.03
2022-08-21T15:35:11.084Z,100989.75
2022-08-21T15:37:38.853Z,100987.56
2022-08-21T15:40:08.444Z,100989.63
2022-08-21T15:42:39.422Z,100991.81
2022-08-21T15:45:09.889Z,100986.28
2022-08-21T15:47:39.335Z,100983.72
2022-08-21T15:50:08.757Z,100990.06
2022-08-21T15:52:36.876Z,100986.72
2022-08-21T15:55:05.882Z,100985.47
2022-08-21T15:57:33.551Z,100978.09
2022-08-21T16:00:14.097Z,100985.22
2022-08-21T16:02:44.685Z,100975.16
2022-08-21T16:05:13.362Z,100979.87
2022-08-21T16:07:41.050Z,100985.06
2022-08-21T16:10:09.221Z,100979.91
2022-08-21T16:12:44.921Z,100975.44
2022-08-21T16:15:20.226Z,100974.12
2022-08-21T16:17:50.292Z,100976.37
2022-08-21T16:20:20.960Z,100967.84
2022-08-21T16:25:36.233Z,100971.22
2022-08-21T16:28:07.588Z,100971.38
2022-08-21T16:30:38.485Z,100974.09
2022-08-21T16:33:06.909Z,100970.69
2022-08-21T16:35:34.539Z,100976.31
2022-08-21T16:38:02.732Z,100970.34
2022-08-21T16:40:30.534Z,100967.50
2022-08-21T16:42:58.591Z,100965.34
2022-08-21T16:45:29.902Z,100964.59
2022-08-21T16:48:01.085Z,100967.09
2022-08-21T16:50:29.295Z,100971.66
2022-08-21T16:52:57.036Z,100975.19
2022-08-21T16:55:24.718Z,100970.88
2022-08-21T16:57:54.016Z,100977.16
2022-08-21T17:00:21.924Z,100978.41
2022-08-21T17:02:51.489Z,100969.03
2022-08-21T17:05:20.038Z,100985.56
2022-08-21T17:07:47.797Z,100976.13
2022-08-21T17:10:17.067Z,100983.31
2022-08-21T17:12:51.386Z,100978.03
2022-08-21T17:15:21.799Z,100983.13
2022-08-21T17:17:50.117Z,100987.09
2022-08-21T17:20:18.251Z,100988.28
2022-08-21T17:22:45.973Z,100984.38
2022-08-21T17:25:14.213Z,100989.19
2022-08-21T17:27:44.402Z,100986.09
2022-08-21T17:30:12.930Z,100991.41
2022-08-21T17:32:41.733Z,100996.19
2022-08-21T17:35:09.848Z,100989.50
2022-08-21T17:37:37.706Z,100991.12
2022-08-21T17:40:10.847Z,100991.03
2022-08-21T17:42:40.209Z,100995.09
2022-08-21T17:45:09.911Z,100984.91
2022-08-21T17:47:38.389Z,100984.69
2022-08-21T17:50:07.022Z,100987.72
2022-08-21T17:52:35.761Z,100983.22
2022-08-21T17:55:04.310Z,100986.16
2022-08-21T17:57:35.579Z,100977.34
2022-08-21T18:00:06.268Z,100982.03
2022-08-21T18:02:40.203Z,100985.09
2022-08-21T18:05:09.521Z,100981.41
2022-08-21T18:07:40.294Z,100983.75
2022-08-21T18:10:11.516Z,100983.72
2022-08-21T18:12:43.012Z,100977.22
2022-08-21T18:15:12.743Z,100976.37
2022-08-21T18:17:41.486Z,100967.72
2022-08-21T18:20:09.852Z,100971.38
2022-08-21T18:22:37.874Z,100975.22
2022-08-21T18:25:06.046Z,100968.72
2022-08-21T18:27:33.886Z,100966.03
2022-08-21T18:30:04.987Z,100980.59
2022-08-21T18:32:32.731Z,100970.72
2022-08-21T18:35:05.696Z,100966.25
2022-08-21T18:37:34.244Z,100972.41
2022-08-21T18:40:09.626Z,100974.59
2022-08-21T18:45:24.970Z,100982.75
2022-08-21T18:47:54.129Z,100980.28
2022-08-21T18:50:25.008Z,100980.75
2022-08-21T18:52:54.659Z,100982.09
2022-08-21T18:55:24.428Z,100975.75
2022-08-21T18:57:53.474Z,100984.09
2022-08-21T19:00:24.296Z,100981.09
2022-08-21T19:02:52.624Z,100976.41
2022-08-21T19:05:21.520Z,100973.75
2022-08-21T19:07:51.770Z,100973.22
2022-08-21T19:10:28.847Z,100967.03
2022-08-21T19:13:01.455Z,100972.53
2022-08-21T19:15:30.081Z,100969.03
2022-08-21T19:17:58.744Z,100972.72
2022-08-21T19:20:30.740Z,100975.87
2022-08-21T19:22:58.797Z,100967.38
2022-08-21T19:25:33.025Z,100974.91
2022-08-21T19:28:03.465Z,100980.03
2022-08-21T19:33:33.591Z,100968.34
2022-08-21T19:36:01.758Z,100970.09
2022-08-21T19:38:29.920Z,100972.72
2022-08-21T19:40:58.310Z,100969.59
2022-08-21T19:43:26.214Z,100971.12
2022-08-21T19:45:57.558Z,100966.25
2022-08-21T19:48:26.369Z,100968.97
2022-08-21T19:50:54.258Z,100964.91
2022-08-21T19:53:22.216Z,100960.53
2022-08-21T19:55:50.901Z,100965.63
2022-08-21T19:58:37.570Z,100971.66
2022-08-21T20:01:16.316Z,100964.47
2022-08-21T20:05:02.669Z,100969.25
2022-08-21T20:07:31.019Z,100969.25
2022-08-21T20:10:00.030Z,100967.38
2022-08-21T20:12:28.093Z,100974.22
2022-08-21T20:14:57.148Z,100970.13
2022-08-21T20:17:25.655Z,100971.78
2022-08-21T20:22:42.408Z,100977.72
2022-08-21T20:25:10.397Z,100980.28
2022-08-21T20:27:40.578Z,100976.56
2022-08-21T20:30:10.115Z,100974.12
2022-08-21T20:32:38.267Z,100983.09
2022-08-21T20:40:45.628Z,100972.41
2022-08-21T20:43:14.671Z,100977.34
2022-08-21T20:45:43.719Z,100973.19
2022-08-21T20:48:23.612Z,100980.56
2022-08-21T20:51:02.841Z,100973.88
2022-08-21T20:53:46.843Z,100968.56
2022-08-21T20:56:30.236Z,100977.00
2022-08-21T20:59:22.887Z,100951.66
2022-08-21T21:01:54.177Z,100977.75
2022-08-21T21:04:43.221Z,100975.25
2022-08-21T21:07:18.616Z,100978.44
2022-08-21T21:09:49.618Z,100981.94
2022-08-21T21:12:30.754Z,100974.28
2022-08-21T21:15:05.504Z,100977.00
2022-08-21T21:18:13.258Z,100975.09
2022-08-21T21:24:00.459Z,100977.84
2022-08-21T21:26:46.145Z,100986.06
2022-08-21T21:29:39.471Z,100983.72
2022-08-21T21:32:10.188Z,100986.88
2022-08-21T21:34:51.176Z,100987.25
2022-08-21T21:37:37.426Z,100980.06
2022-08-21T21:40:29.686Z,100983.63
2022-08-21T21:43:05.503Z,100988.81
2022-08-21T21:45:55.232Z,100983.41
2022-08-21T21:48:41.294Z,100986.00
2022-08-21T21:51:47.633Z,100976.81
2022-08-21T21:54:43.536Z,100979.94
2022-08-21T21:57:43.294Z,100984.94
2022-08-21T22:00:21.092Z,100979.09
2022-08-21T22:02:55.258Z,100981.88
2022-08-21T22:05:43.127Z,100979.09
2022-08-21T22:08:30.278Z,100977.66
2022-08-21T22:11:08.976Z,100986.75
2022-08-21T22:14:16.818Z,100990.56
2022-08-21T22:16:51.215Z,100986.09
2022-08-21T22:19:25.061Z,100984.44
2022-08-21T22:22:01.004Z,100989.34
2022-08-21T22:24:35.726Z,100993.37
2022-08-21T22:27:09.560Z,101001.34
2022-08-21T22:29:44.563Z,100994.38
2022-08-21T22:32:13.588Z,101000.13
2022-08-21T22:34:42.906Z,100995.91
2022-08-21T22:37:12.404Z,100995.06
2022-08-21T22:42:31.573Z,101001.78
2022-08-21T22:45:04.742Z,100997.59
2022-08-21T22:47:45.097Z,101000.41
2022-08-21T22:50:27.379Z,100995.63
2022-08-21T22:53:00.886Z,101004.03
2022-08-21T22:55:55.223Z,101004.03
2022-08-21T22:58:27.538Z,100999.50
2022-08-21T23:01:00.846Z,101003.75
2022-08-21T23:03:47.672Z,101005.00
2022-08-21T23:06:36.110Z,101004.72
2022-08-21T23:09:17.566Z,101004.44
2022-08-21T23:11:50.887Z,101006.25
2022-08-21T23:14:35.271Z,101001.78
2022-08-21T23:17:14.449Z,101006.66
2022-08-21T23:20:03.591Z,101005.56
2022-08-21T23:22:37.369Z,101003.03
2022-08-21T23:25:28.350Z,100995.88
2022-08-21T23:28:23.985Z,100999.25
2022-08-21T23:31:13.734Z,101007.53
2022-08-21T23:34:20.179Z,101001.91
2022-08-21T23:37:23.193Z,100999.69
2022-08-21T23:40:15.058Z,101001.06
2022-08-21T23:43:13.156Z,101014.25
2022-08-21T23:46:07.621Z,101005.41
2022-08-21T23:49:06.038Z,101012.66
2022-08-21T23:55:00.287Z,101020.41
